Portada
METAR-TAF:

METAR-TAF

Aeroports :

Yanbu, Aràbia Saudita

latitud: 24-09N, longitud: 038-04E, altitud: 8 m

Observació

L'informe es va fer fa 40 minuts, a les 06:00 UTC
Vent 7 kt del Sud-Est
Temperatura 34°C
Humitat 60%
Pressió 1003 hPa
Visibilitat 10 km o més
Escasses núvols a una alçada de 4000 ft
Núvols disperses a una alçada de 10000 ft

METAR: OEYN 220600Z 14007KT 9999 FEW040 SCT100 34/25 Q1003 NOSIG

Hora: 09:40 (06:40 UTC)

Pronòstic

L'informe es va fer fa 7 hores i 40 minuts, a les 23:00 UTC
Pronòstic vàlid del 22 a les 00 UTC al 23 a les 06 UTC
Vent 3 kt amb direcció variable
Visibilitat 10 km o més
Escasses núvols a una alçada de 3000 ft
Evolucionant progressivament
l' 22 a les 06 UTC al 22 a les 08 UTC
Vent 14 kt del Oest/Sud-Oest
Evolucionant progressivament
l' 22 a les 18 UTC al 22 a les 20 UTC
Vent 6 kt del Nord/Nord-Est

TAF: OEYN 212300Z 2200/2306 VRB03KT 9999 FEW030 BECMG 2206/2208 25014KT BECMG 2218/2220 03006KT

Observacions i pronòstics meteorològics de més de 4000 aeroports (METAR i TAF).

Les estacions disponibles són els punts grocs i vermells al mapa.

Posi el ratolí al punt desitjat per veure el nom de l'estació.

Feu clic per veure les observacions i els pronòstics meteorològics.

Per canviar el mapa: feu clic els botons verds amb una creu de color negre per apropar; al botó verd amb un guió per allunyar la imatge; o en les fletxes verdes per a mapes adjacents.


METAR-TAF: